createdAt,value
2016-02-05T00:00:53.356Z,0
2016-02-05T00:01:53.311Z,0
2016-02-05T00:02:53.314Z,0
2016-02-05T00:03:53.332Z,0
2016-02-05T00:04:53.305Z,0
2016-02-05T00:05:53.291Z,0
2016-02-05T00:06:53.294Z,0
2016-02-05T00:07:53.281Z,0
2016-02-05T00:08:53.299Z,0
2016-02-05T00:09:53.287Z,0
2016-02-05T00:10:53.322Z,0
2016-02-05T00:11:53.292Z,0
2016-02-05T00:12:53.280Z,0
2016-02-05T00:13:53.267Z,0
2016-02-05T00:14:53.274Z,0
2016-02-05T00:15:53.277Z,0
2016-02-05T00:16:53.264Z,0
2016-02-05T00:17:53.253Z,0
2016-02-05T00:18:53.255Z,0
2016-02-05T00:19:53.273Z,0
2016-02-05T00:20:53.261Z,0
2016-02-05T00:21:53.106Z,0
2016-02-05T00:22:53.251Z,0
2016-02-05T00:23:53.097Z,0
2016-02-05T00:24:53.225Z,0
2016-02-05T00:25:53.233Z,0
2016-02-05T00:26:53.251Z,0
2016-02-05T00:27:53.222Z,0
2016-02-05T00:28:53.241Z,0
2016-02-05T00:29:53.229Z,0
2016-02-05T00:30:53.221Z,0
2016-02-05T00:31:53.098Z,0
2016-02-05T00:32:53.232Z,0
2016-02-05T00:33:53.219Z,0
2016-02-05T00:34:53.206Z,0
2016-02-05T00:35:53.234Z,0
2016-02-05T00:36:53.189Z,0
2016-02-05T00:37:53.192Z,0
2016-02-05T00:38:53.211Z,0
2016-02-05T00:39:53.198Z,0
2016-02-05T00:40:53.216Z,0
2016-02-05T00:41:53.203Z,0
2016-02-05T00:42:53.191Z,0
2016-02-05T00:43:53.184Z,0
2016-02-05T00:44:53.203Z,0
2016-02-05T00:45:53.189Z,0
2016-02-05T00:46:53.176Z,0
2016-02-05T00:47:53.195Z,0
2016-02-05T00:48:53.167Z,0
2016-02-05T00:49:53.169Z,0
2016-02-05T00:50:53.187Z,0
2016-02-05T00:51:53.190Z,0
2016-02-05T00:52:53.146Z,0
2016-02-05T00:53:53.148Z,0
2016-02-05T00:54:53.153Z,0
2016-02-05T00:55:53.157Z,0
2016-02-05T00:56:53.160Z,0
2016-02-05T00:57:52.979Z,0
2016-02-05T00:58:53.137Z,0
2016-02-05T00:59:53.171Z,0
2016-02-05T01:00:53.127Z,0
2016-02-05T01:01:53.130Z,0
2016-02-05T01:02:53.148Z,0
2016-02-05T01:03:53.120Z,0
2016-02-05T01:04:53.138Z,0
2016-02-05T01:05:53.126Z,0
2016-02-05T01:06:53.143Z,0
2016-02-05T01:07:53.132Z,0
2016-02-05T01:08:53.135Z,0
2016-02-05T01:09:53.105Z,0
2016-02-05T01:10:53.140Z,0
2016-02-05T01:11:53.142Z,0
2016-02-05T01:12:53.100Z,0
2016-02-05T01:13:53.117Z,0
2016-02-05T01:14:53.105Z,0
2016-02-05T01:15:53.091Z,0
2016-02-05T01:16:53.094Z,0
2016-02-05T01:17:53.070Z,0
2016-02-05T01:18:53.073Z,0
2016-02-05T01:19:53.090Z,0
2016-02-05T01:20:53.077Z,0
2016-02-05T01:21:53.081Z,0
2016-02-05T01:22:53.067Z,0
2016-02-05T01:23:53.070Z,0
2016-02-05T01:24:53.072Z,0
2016-02-05T01:25:53.045Z,0
2016-02-05T01:26:53.063Z,0
2016-02-05T01:27:53.070Z,0
2016-02-05T01:28:53.041Z,0
2016-02-05T01:29:53.060Z,0
2016-02-05T01:30:53.063Z,0
2016-02-05T01:31:53.049Z,0
2016-02-05T01:32:52.880Z,0
2016-02-05T01:33:53.040Z,0
2016-02-05T01:34:53.027Z,0
2016-02-05T01:35:53.049Z,0
2016-02-05T01:36:53.020Z,0
2016-02-05T01:37:53.023Z,0
2016-02-05T01:38:53.011Z,0
2016-02-05T01:39:53.044Z,0
2016-02-05T01:40:53.031Z,0
2016-02-05T01:41:53.018Z,0
2016-02-05T01:42:53.021Z,0
2016-02-05T01:43:52.992Z,0
2016-02-05T01:44:52.994Z,0
2016-02-05T01:45:53.029Z,0
2016-02-05T01:46:52.984Z,0
2016-02-05T01:47:53.004Z,0
2016-02-05T01:48:53.006Z,0
2016-02-05T01:49:52.978Z,0
2016-02-05T01:50:52.980Z,0
2016-02-05T01:51:52.999Z,0
2016-02-05T01:52:53.037Z,0
2016-02-05T01:53:52.976Z,0
2016-02-05T01:54:52.979Z,0
2016-02-05T01:55:52.970Z,0
2016-02-05T01:56:52.973Z,0
2016-02-05T01:57:52.804Z,0
2016-02-05T01:58:52.954Z,0
2016-02-05T01:59:52.957Z,0
2016-02-05T02:00:52.960Z,0
2016-02-05T02:01:52.947Z,0
2016-02-05T02:02:52.934Z,0
2016-02-05T02:03:52.958Z,0
2016-02-05T02:04:52.945Z,0
2016-02-05T02:05:52.947Z,0
2016-02-05T02:06:52.965Z,0
2016-02-05T02:07:52.922Z,0
2016-02-05T02:08:52.925Z,0
2016-02-05T02:09:52.959Z,0
2016-02-05T02:10:52.915Z,0
2016-02-05T02:11:52.917Z,0
2016-02-05T02:12:52.937Z,0
2016-02-05T02:13:52.907Z,0
2016-02-05T02:14:52.895Z,0
2016-02-05T02:15:52.929Z,0
2016-02-05T02:16:52.900Z,0
2016-02-05T02:17:52.903Z,0
2016-02-05T02:18:52.906Z,0
2016-02-05T02:19:52.892Z,0
2016-02-05T02:20:52.881Z,0
2016-02-05T02:21:52.900Z,0
2016-02-05T02:22:52.872Z,0
2016-02-05T02:23:52.875Z,0
2016-02-05T02:24:52.892Z,0
2016-02-05T02:25:52.880Z,0
2016-02-05T02:26:52.883Z,0
2016-02-05T02:27:52.888Z,0
2016-02-05T02:28:52.874Z,0
2016-02-05T02:29:52.862Z,0
2016-02-05T02:30:52.885Z,0
2016-02-05T02:31:52.841Z,0
2016-02-05T02:32:52.874Z,0
2016-02-05T02:33:52.863Z,0
2016-02-05T02:34:52.849Z,0
2016-02-05T02:35:52.852Z,0
2016-02-05T02:36:52.839Z,0
2016-02-05T02:37:52.842Z,0
2016-02-05T02:38:52.829Z,0
2016-02-05T02:39:52.832Z,0
2016-02-05T02:40:52.819Z,0
2016-02-05T02:41:52.821Z,0
2016-02-05T02:42:52.841Z,0
2016-02-05T02:43:52.817Z,0
2016-02-05T02:44:52.851Z,0
2016-02-05T02:45:52.665Z,0
2016-02-05T02:46:52.824Z,0
2016-02-05T02:47:52.843Z,0
2016-02-05T02:48:52.814Z,0
2016-02-05T02:49:52.801Z,0
2016-02-05T02:50:52.648Z,0
2016-02-05T02:51:52.807Z,0
2016-02-05T02:52:52.797Z,0
2016-02-05T02:53:52.800Z,0
2016-02-05T02:54:52.802Z,0
2016-02-05T02:55:52.789Z,0
2016-02-05T02:56:52.776Z,0
2016-02-05T02:57:52.796Z,0
2016-02-05T02:58:52.986Z,0
2016-02-05T02:59:52.771Z,0
2016-02-05T03:00:52.792Z,0
2016-02-05T03:01:52.779Z,0
2016-02-05T03:02:52.750Z,0
2016-02-05T03:03:52.785Z,0
2016-02-05T03:04:52.756Z,0
2016-02-05T03:05:52.759Z,0
2016-02-05T03:06:52.762Z,0
2016-02-05T03:07:52.733Z,0
2016-02-05T03:08:52.737Z,0
2016-02-05T03:09:52.755Z,0
2016-02-05T03:10:52.726Z,0
2016-02-05T03:11:52.728Z,0
2016-02-05T03:12:52.732Z,0
2016-02-05T03:13:52.724Z,0
2016-02-05T03:14:52.742Z,0
2016-02-05T03:15:52.716Z,0
2016-02-05T03:16:52.735Z,0
2016-02-05T03:17:52.722Z,0
2016-02-05T03:18:52.708Z,0
2016-02-05T03:19:52.699Z,0
2016-02-05T03:20:52.703Z,0
2016-02-05T03:21:52.706Z,0
2016-02-05T03:22:52.708Z,0
2016-02-05T03:23:52.695Z,0
2016-02-05T03:24:52.541Z,0
2016-02-05T03:25:52.685Z,0
2016-02-05T03:26:52.673Z,0
2016-02-05T03:27:52.707Z,0
2016-02-05T03:28:52.678Z,0
2016-02-05T03:29:52.681Z,0
2016-02-05T03:30:52.695Z,0
2016-02-05T03:31:52.667Z,0
2016-02-05T03:32:52.700Z,0
2016-02-05T03:33:52.687Z,0
2016-02-05T03:34:52.659Z,0
2016-02-05T03:35:52.646Z,0
2016-02-05T03:36:52.665Z,0
2016-02-05T03:37:52.653Z,0
2016-02-05T03:38:52.656Z,0
2016-02-05T03:39:52.658Z,0
2016-02-05T03:40:52.646Z,0
2016-02-05T03:41:52.633Z,0
2016-02-05T03:42:52.651Z,0
2016-02-05T03:43:52.639Z,0
2016-02-05T03:44:52.625Z,0
2016-02-05T03:45:52.661Z,0
2016-02-05T03:46:52.632Z,0
2016-02-05T03:47:52.620Z,0
2016-02-05T03:48:52.638Z,0
2016-02-05T03:49:52.610Z,0
2016-02-05T03:50:52.612Z,0
2016-02-05T03:51:52.631Z,0
2016-02-05T03:52:52.618Z,0
2016-02-05T03:53:52.651Z,0
2016-02-05T03:54:52.592Z,0
2016-02-05T03:55:52.593Z,0
2016-02-05T03:56:52.613Z,0
2016-02-05T03:57:52.600Z,0
2016-02-05T03:58:52.590Z,0
2016-02-05T03:59:52.442Z,0
2016-02-05T04:00:52.570Z,0
2016-02-05T04:01:52.573Z,0
2016-02-05T04:02:52.576Z,0
2016-02-05T04:03:52.563Z,0
2016-02-05T04:04:52.567Z,0
2016-02-05T04:05:52.572Z,0
2016-02-05T04:06:52.559Z,0
2016-02-05T04:07:52.545Z,0
2016-02-05T04:08:52.548Z,0
2016-02-05T04:09:52.551Z,0
2016-02-05T04:10:52.553Z,0
2016-02-05T04:11:52.525Z,0
2016-02-05T04:12:52.544Z,0
2016-02-05T04:13:52.530Z,0
2016-02-05T04:14:52.533Z,0
2016-02-05T04:15:52.552Z,0
2016-02-05T04:16:52.523Z,0
2016-02-05T04:17:52.526Z,0
2016-02-05T04:18:52.529Z,0
2016-02-05T04:19:52.517Z,0
2016-02-05T04:20:52.519Z,0
2016-02-05T04:21:52.522Z,0
2016-02-05T04:22:52.499Z,0
2016-02-05T04:23:52.503Z,0
2016-02-05T04:24:52.505Z,0
2016-02-05T04:25:52.522Z,0
2016-02-05T04:26:52.510Z,0
2016-02-05T04:27:52.496Z,0
2016-02-05T04:28:52.516Z,0
2016-02-05T04:29:52.484Z,0
2016-02-05T04:30:52.487Z,0
2016-02-05T04:31:52.490Z,0
2016-02-05T04:32:52.455Z,0
2016-02-05T04:33:52.466Z,0
2016-02-05T04:34:52.491Z,0
2016-02-05T04:35:52.423Z,0
2016-02-05T04:36:52.418Z,0
2016-02-05T04:37:52.433Z,0
2016-02-05T04:38:52.402Z,0
2016-02-05T04:39:52.433Z,0
2016-02-05T04:40:52.387Z,0
2016-02-05T04:41:52.387Z,0
2016-02-05T04:42:52.373Z,0
2016-02-05T04:43:52.375Z,0
2016-02-05T04:44:52.376Z,0
2016-02-05T04:45:52.393Z,0
2016-02-05T04:46:52.363Z,0
2016-02-05T04:47:52.396Z,0
2016-02-05T04:48:52.384Z,0
2016-02-05T04:49:52.354Z,0
2016-02-05T04:50:52.358Z,0
2016-02-05T04:51:52.391Z,0
2016-02-05T04:52:52.348Z,0
2016-02-05T04:53:52.351Z,0
2016-02-05T04:54:52.337Z,0
2016-02-05T04:55:52.344Z,0
2016-02-05T04:56:52.331Z,0
2016-02-05T04:57:52.333Z,0
2016-02-05T04:58:52.337Z,0
2016-02-05T04:59:52.325Z,0
2016-02-05T05:00:52.313Z,0
2016-02-05T05:01:52.316Z,0
2016-02-05T05:02:52.334Z,0
2016-02-05T05:03:52.325Z,0
2016-02-05T05:04:52.311Z,0
2016-02-05T05:05:52.313Z,0
2016-02-05T05:06:52.316Z,0
2016-02-05T05:07:52.305Z,0
2016-02-05T05:08:52.307Z,0
2016-02-05T05:09:52.293Z,0
2016-02-05T05:10:52.327Z,0
2016-02-05T05:11:52.299Z,0
2016-02-05T05:12:52.286Z,0
2016-02-05T05:13:52.320Z,0
2016-02-05T05:14:52.291Z,0
2016-02-05T05:15:52.341Z,0
2016-02-05T05:16:52.297Z,0
2016-02-05T05:17:52.285Z,0
2016-02-05T05:18:52.115Z,0
2016-02-05T05:19:52.274Z,0
2016-02-05T05:20:52.261Z,0
2016-02-05T05:21:52.264Z,0
2016-02-05T05:22:52.267Z,0
2016-02-05T05:23:52.255Z,0
2016-02-05T05:24:52.242Z,0
2016-02-05T05:25:52.292Z,0
2016-02-05T05:26:52.232Z,0
2016-02-05T05:27:52.250Z,0
2016-02-05T05:28:52.257Z,0
2016-02-05T05:29:52.246Z,0
2016-02-05T05:30:52.248Z,0
2016-02-05T05:31:52.237Z,0
2016-02-05T05:32:52.223Z,0
2016-02-05T05:33:52.554Z,0
2016-02-05T05:34:52.229Z,0
2016-02-05T05:35:52.217Z,0
2016-02-05T05:36:52.207Z,0
2016-02-05T05:37:52.257Z,0
2016-02-05T05:38:52.213Z,0
2016-02-05T05:39:52.200Z,0
2016-02-05T05:40:52.218Z,0
2016-02-05T05:41:52.220Z,0
2016-02-05T05:42:52.224Z,0
2016-02-05T05:43:52.180Z,0
2016-02-05T05:44:52.199Z,0
2016-02-05T05:45:52.201Z,0
2016-02-05T05:46:52.172Z,0
2016-02-05T05:47:52.191Z,0
2016-02-05T05:48:52.225Z,0
2016-02-05T05:49:52.181Z,0
2016-02-05T05:50:52.216Z,0
2016-02-05T05:51:52.186Z,0
2016-02-05T05:52:52.175Z,0
2016-02-05T05:53:52.161Z,0
2016-02-05T05:54:52.180Z,0
2016-02-05T05:55:52.150Z,0
2016-02-05T05:56:52.168Z,0
2016-02-05T05:57:52.172Z,0
2016-02-05T05:58:52.144Z,0
2016-02-05T05:59:52.147Z,0
2016-02-05T06:00:52.164Z,0
2016-02-05T06:01:52.137Z,0
2016-02-05T06:02:52.139Z,0
2016-02-05T06:03:52.142Z,0
2016-02-05T06:04:52.114Z,0
2016-02-05T06:05:52.131Z,0
2016-02-05T06:06:52.134Z,0
2016-02-05T06:07:52.137Z,0
2016-02-05T06:08:52.110Z,0
2016-02-05T06:09:52.112Z,0
2016-02-05T06:10:52.115Z,0
2016-02-05T06:11:52.102Z,0
2016-02-05T06:12:52.105Z,0
2016-02-05T06:13:52.108Z,0
2016-02-05T06:14:52.079Z,0
2016-02-05T06:15:52.097Z,0
2016-02-05T06:16:52.116Z,0
2016-02-05T06:17:52.087Z,0
2016-02-05T06:18:52.092Z,0
2016-02-05T06:19:52.094Z,0
2016-02-05T06:20:52.082Z,0
2016-02-05T06:21:52.072Z,0
2016-02-05T06:22:52.106Z,0
2016-02-05T06:23:52.078Z,0
2016-02-05T06:24:51.924Z,0
2016-02-05T06:25:52.067Z,4
2016-02-05T06:26:52.069Z,4
2016-02-05T06:27:52.073Z,4
2016-02-05T06:28:52.063Z,0
2016-02-05T06:29:52.074Z,4
2016-02-05T06:30:52.076Z,4
2016-02-05T06:31:52.048Z,4
2016-02-05T06:32:52.051Z,4
2016-02-05T06:33:52.039Z,4
2016-02-05T06:34:52.041Z,8
2016-02-05T06:35:52.059Z,4
2016-02-05T06:36:52.031Z,8
2016-02-05T06:37:52.017Z,8
2016-02-05T06:38:52.020Z,8
2016-02-05T06:39:52.023Z,12
2016-02-05T06:40:52.042Z,12
2016-02-05T06:41:52.014Z,12
2016-02-05T06:42:52.032Z,16
2016-02-05T06:43:52.003Z,16
2016-02-05T06:44:52.006Z,20
2016-02-05T06:45:52.025Z,24
2016-02-05T06:46:51.996Z,28
2016-02-05T06:47:51.983Z,32
2016-02-05T06:48:52.032Z,32
2016-02-05T06:49:51.988Z,36
2016-02-05T06:50:51.976Z,36
2016-02-05T06:51:51.994Z,40
2016-02-05T06:52:51.980Z,40
2016-02-05T06:53:51.983Z,44
2016-02-05T06:54:51.986Z,48
2016-02-05T06:55:51.959Z,56
2016-02-05T06:56:51.977Z,56
2016-02-05T06:57:51.980Z,60
2016-02-05T06:58:51.950Z,60
2016-02-05T06:59:51.951Z,60
2016-02-05T07:00:51.969Z,60
2016-02-05T07:01:51.941Z,64
2016-02-05T07:02:51.943Z,76
2016-02-05T07:03:51.806Z,80
2016-02-05T07:04:51.950Z,88
2016-02-05T07:05:51.953Z,88
2016-02-05T07:06:51.970Z,88
2016-02-05T07:07:51.942Z,92
2016-02-05T07:08:51.945Z,100
2016-02-05T07:09:51.932Z,108
2016-02-05T07:10:51.951Z,120
2016-02-05T07:11:51.937Z,136
2016-02-05T07:12:51.910Z,140
2016-02-05T07:13:51.912Z,152
2016-02-05T07:14:51.916Z,180
2016-02-05T07:15:51.918Z,216
2016-02-05T07:16:51.921Z,212
2016-02-05T07:17:51.893Z,216
2016-02-05T07:18:51.927Z,236
2016-02-05T07:19:51.898Z,244
2016-02-05T07:20:51.885Z,268
2016-02-05T07:21:51.895Z,288
2016-02-05T07:22:51.897Z,308
2016-02-05T07:23:51.884Z,312
2016-02-05T07:24:51.903Z,332
2016-02-05T07:25:52.484Z,344
2016-02-05T07:26:51.878Z,356
2016-02-05T07:27:51.896Z,356
2016-02-05T07:28:51.868Z,360
2016-02-05T07:29:51.857Z,360
2016-02-05T07:30:51.875Z,380
2016-02-05T07:31:51.894Z,408
2016-02-05T07:32:51.865Z,428
2016-02-05T07:33:51.883Z,448
2016-02-05T07:34:51.904Z,472
2016-02-05T07:35:51.860Z,500
2016-02-05T07:36:51.846Z,488
2016-02-05T07:37:51.865Z,472
2016-02-05T07:38:51.867Z,480
2016-02-05T07:39:51.840Z,500
2016-02-05T07:40:51.842Z,516
2016-02-05T07:41:51.860Z,512
2016-02-05T07:42:51.831Z,492
2016-02-05T07:43:51.817Z,484
2016-02-05T07:44:51.853Z,508
2016-02-05T07:45:51.840Z,544
2016-02-05T07:46:51.826Z,560
2016-02-05T07:47:51.860Z,564
2016-02-05T07:48:51.797Z,592
2016-02-05T07:49:51.800Z,636
2016-02-05T07:50:51.836Z,688
2016-02-05T07:51:51.805Z,724
2016-02-05T07:52:51.792Z,772
2016-02-05T07:53:51.795Z,764
2016-02-05T07:54:51.799Z,712
2016-02-05T07:55:51.803Z,712
2016-02-05T07:56:51.805Z,724
2016-02-05T07:57:51.777Z,772
2016-02-05T07:58:51.779Z,776
2016-02-05T07:59:51.813Z,740
2016-02-05T08:00:51.775Z,696
2016-02-05T08:01:51.762Z,696
2016-02-05T08:02:51.783Z,772
2016-02-05T08:03:51.771Z,828
2016-02-05T08:04:51.758Z,876
2016-02-05T08:05:51.777Z,920
2016-02-05T08:06:51.763Z,952
2016-02-05T08:07:51.750Z,936
2016-02-05T08:08:51.786Z,948
2016-02-05T08:09:51.772Z,924
2016-02-05T08:10:51.791Z,920
2016-02-05T08:11:51.746Z,920
2016-02-05T08:12:51.749Z,988
2016-02-05T08:13:51.767Z,1056
2016-02-05T08:14:51.723Z,1132
2016-02-05T08:15:51.726Z,1208
2016-02-05T08:16:51.760Z,1244
2016-02-05T08:17:51.731Z,1388
2016-02-05T08:18:51.718Z,1568
2016-02-05T08:19:51.005Z,1716
2016-02-05T08:20:51.710Z,1824
2016-02-05T08:21:51.744Z,1804
2016-02-05T08:22:51.717Z,1652
2016-02-05T08:23:51.719Z,1508
2016-02-05T08:24:51.706Z,1536
2016-02-05T08:25:51.709Z,1564
2016-02-05T08:26:51.712Z,1696
2016-02-05T08:27:51.685Z,1820
2016-02-05T08:28:51.703Z,1912
2016-02-05T08:29:51.690Z,1940
2016-02-05T08:30:51.680Z,2028
2016-02-05T08:31:51.697Z,2136
2016-02-05T08:32:51.669Z,2148
2016-02-05T08:33:51.672Z,2092
2016-02-05T08:34:51.690Z,2084
2016-02-05T08:35:51.708Z,2084
2016-02-05T08:36:51.696Z,2072
2016-02-05T08:37:51.682Z,2012
2016-02-05T08:38:51.669Z,1928
2016-02-05T08:39:51.705Z,1904
2016-02-05T08:40:51.675Z,2000
2016-02-05T08:41:51.663Z,2084
2016-02-05T08:42:51.681Z,2136
2016-02-05T08:43:51.652Z,2148
2016-02-05T08:44:51.655Z,2124
2016-02-05T08:45:51.689Z,2104
2016-02-05T08:46:51.661Z,2072
2016-02-05T08:47:51.649Z,2088
2016-02-05T08:48:51.668Z,2124
2016-02-05T08:49:51.640Z,2016
2016-02-05T08:50:51.627Z,1864
2016-02-05T08:51:51.629Z,1740
2016-02-05T08:52:51.634Z,1728
2016-02-05T08:53:51.636Z,1828
2016-02-05T08:54:51.624Z,1892
2016-02-05T08:55:51.642Z,1888
2016-02-05T08:56:51.630Z,1848
2016-02-05T08:57:51.647Z,1816
2016-02-05T08:58:51.619Z,1792
2016-02-05T08:59:51.621Z,1816
2016-02-05T09:00:51.612Z,1844
2016-02-05T09:01:51.615Z,1800
2016-02-05T09:02:51.634Z,1760
2016-02-05T09:03:51.621Z,1696
2016-02-05T09:04:51.608Z,1604
2016-02-05T09:05:51.613Z,1508
2016-02-05T09:06:51.616Z,1456
2016-02-05T09:07:51.604Z,1492
2016-02-05T09:08:51.606Z,1544
2016-02-05T09:09:51.593Z,1528
2016-02-05T09:10:51.612Z,1488
2016-02-05T09:11:51.614Z,1472
2016-02-05T09:12:51.602Z,1508
2016-02-05T09:13:51.609Z,1528
2016-02-05T09:14:51.580Z,1536
2016-02-05T09:15:51.584Z,1656
2016-02-05T09:16:51.587Z,1812
2016-02-05T09:17:51.575Z,1948
2016-02-05T09:18:51.577Z,1948
2016-02-05T09:19:51.604Z,1828
2016-02-05T09:20:51.574Z,1772
2016-02-05T09:21:51.577Z,1748
2016-02-05T09:22:51.409Z,1696
2016-02-05T09:23:51.426Z,1644
2016-02-05T09:24:51.585Z,1620
2016-02-05T09:25:51.561Z,1544
2016-02-05T09:26:51.563Z,1436
2016-02-05T09:27:51.582Z,1388
2016-02-05T09:28:51.553Z,1388
2016-02-05T09:29:51.555Z,1400
2016-02-05T09:30:51.543Z,1384
2016-02-05T09:31:51.389Z,1440
2016-02-05T09:32:51.548Z,1620
2016-02-05T09:33:51.535Z,1820
2016-02-05T09:34:51.538Z,1984
2016-02-05T09:35:51.540Z,2156
2016-02-05T09:36:51.529Z,2196
2016-02-05T09:37:51.531Z,2236
2016-02-05T09:38:51.549Z,2288
2016-02-05T09:39:51.520Z,2308
2016-02-05T09:40:51.554Z,2348
2016-02-05T09:41:51.526Z,2320
2016-02-05T09:42:51.528Z,2164
2016-02-05T09:43:51.547Z,2012
2016-02-05T09:44:51.517Z,1896
2016-02-05T09:45:51.506Z,1776
2016-02-05T09:46:51.524Z,1688
2016-02-05T09:47:51.512Z,1656
2016-02-05T09:48:51.517Z,1636
2016-02-05T09:49:51.505Z,1552
2016-02-05T09:50:51.538Z,1480
2016-02-05T09:51:51.509Z,1424
2016-02-05T09:52:51.496Z,1424
2016-02-05T09:53:51.500Z,1416
2016-02-05T09:54:51.503Z,1408
2016-02-05T09:55:51.522Z,1392
2016-02-05T09:56:51.508Z,1412
2016-02-05T09:57:51.511Z,1388
2016-02-05T09:58:51.531Z,1304
2016-02-05T09:59:51.487Z,1256
2016-02-05T10:00:51.473Z,1256
2016-02-05T10:01:51.508Z,1324
2016-02-05T10:02:51.495Z,1464
2016-02-05T10:03:51.482Z,1532
2016-02-05T10:04:51.470Z,1540
2016-02-05T10:05:51.458Z,1576
2016-02-05T10:06:51.460Z,1672
2016-02-05T10:07:51.479Z,1768
2016-02-05T10:08:51.450Z,1860
2016-02-05T10:09:51.468Z,2020
2016-02-05T10:10:51.471Z,2076
2016-02-05T10:11:51.490Z,2068
2016-02-05T10:12:51.445Z,2076
2016-02-05T10:13:51.463Z,2144
2016-02-05T10:14:51.451Z,2220
2016-02-05T10:15:51.455Z,2232
2016-02-05T10:16:51.473Z,2224
2016-02-05T10:17:51.444Z,2200
2016-02-05T10:18:51.435Z,2164
2016-02-05T10:19:51.470Z,2112
2016-02-05T10:20:51.440Z,2068
2016-02-05T10:21:51.443Z,2100
2016-02-05T10:22:51.478Z,2156
2016-02-05T10:23:51.434Z,2384
2016-02-05T10:24:51.420Z,2460
2016-02-05T10:25:51.423Z,2384
2016-02-05T10:26:51.441Z,2272
2016-02-05T10:27:51.429Z,2160
2016-02-05T10:28:51.431Z,2140
2016-02-05T10:29:51.450Z,2108
2016-02-05T10:30:51.436Z,2084
2016-02-05T10:31:51.424Z,2000
2016-02-05T10:32:51.411Z,1988
2016-02-05T10:33:51.417Z,2016
2016-02-05T10:34:51.419Z,1936
2016-02-05T10:35:51.422Z,1844
2016-02-05T10:36:51.409Z,1752
2016-02-05T10:37:51.428Z,1680
2016-02-05T10:38:51.401Z,1608
2016-02-05T10:39:51.404Z,1544
2016-02-05T10:40:51.407Z,1540
2016-02-05T10:41:51.440Z,1560
2016-02-05T10:42:51.412Z,1580
2016-02-05T10:43:51.399Z,1596
2016-02-05T10:44:51.385Z,1624
2016-02-05T10:45:51.388Z,1668
2016-02-05T10:46:51.376Z,1712
2016-02-05T10:47:51.409Z,1784
2016-02-05T10:48:51.396Z,1856
2016-02-05T10:49:51.368Z,1896
2016-02-05T10:50:51.386Z,1872
2016-02-05T10:51:51.404Z,1912
2016-02-05T10:52:51.392Z,2032
2016-02-05T10:53:51.378Z,2192
2016-02-05T10:54:51.381Z,2288
2016-02-05T10:55:51.368Z,2348
2016-02-05T10:56:51.371Z,2524
2016-02-05T10:57:51.389Z,2604
2016-02-05T10:58:51.362Z,2604
2016-02-05T10:59:51.365Z,2724
2016-02-05T11:00:51.382Z,2768
2016-02-05T11:01:51.370Z,2588
2016-02-05T11:02:51.359Z,2336
2016-02-05T11:03:51.377Z,2232
2016-02-05T11:04:51.364Z,2364
2016-02-05T11:05:51.352Z,2528
2016-02-05T11:06:51.385Z,2580
2016-02-05T11:07:51.341Z,2548
2016-02-05T11:08:51.343Z,2632
2016-02-05T11:09:51.346Z,2804
2016-02-05T11:10:51.349Z,2944
2016-02-05T11:11:51.384Z,3020
2016-02-05T11:12:51.355Z,3020
2016-02-05T11:13:51.358Z,2928
2016-02-05T11:14:51.345Z,2804
2016-02-05T11:15:51.332Z,2716
2016-02-05T11:16:51.352Z,2620
2016-02-05T11:17:51.339Z,2560
2016-02-05T11:18:51.342Z,2692
2016-02-05T11:19:51.347Z,2888
2016-02-05T11:20:51.333Z,3048
2016-02-05T11:21:51.336Z,2968
2016-02-05T11:22:51.354Z,2920
2016-02-05T11:23:51.325Z,2856
2016-02-05T11:24:51.392Z,2816
2016-02-05T11:25:51.332Z,2864
2016-02-05T11:26:51.334Z,3024
2016-02-05T11:27:51.322Z,3204
2016-02-05T11:28:51.325Z,3192
2016-02-05T11:29:51.327Z,3044
2016-02-05T11:30:51.330Z,2832
2016-02-05T11:31:51.318Z,2684
2016-02-05T11:32:51.338Z,2540
2016-02-05T11:33:51.308Z,2412
2016-02-05T11:34:51.327Z,2368
2016-02-05T11:35:51.298Z,2292
2016-02-05T11:36:51.322Z,2096
2016-02-05T11:37:51.292Z,1840
2016-02-05T11:38:51.311Z,1572
2016-02-05T11:39:51.299Z,1388
2016-02-05T11:40:51.301Z,1304
2016-02-05T11:41:51.304Z,1260
2016-02-05T11:42:51.306Z,1228
2016-02-05T11:43:51.293Z,1220
2016-02-05T11:44:51.296Z,1240
2016-02-05T11:45:51.299Z,1264
2016-02-05T11:46:51.317Z,1292
2016-02-05T11:47:51.304Z,1344
2016-02-05T11:48:51.275Z,1428
2016-02-05T11:49:51.309Z,1528
2016-02-05T11:50:51.281Z,1656
2016-02-05T11:51:51.284Z,1788
2016-02-05T11:52:51.286Z,1924
2016-02-05T11:53:51.274Z,1972
2016-02-05T11:54:51.276Z,2016
2016-02-05T11:55:51.294Z,2148
2016-02-05T11:56:51.282Z,2380
2016-02-05T11:57:51.269Z,2564
2016-02-05T11:58:51.287Z,2656
2016-02-05T11:59:51.353Z,2644
2016-02-05T12:00:51.261Z,2616
2016-02-05T12:01:51.264Z,2592
2016-02-05T12:02:51.284Z,2608
2016-02-05T12:03:51.256Z,2648
2016-02-05T12:04:51.276Z,2700
2016-02-05T12:05:51.278Z,2780
2016-02-05T12:06:51.281Z,2880
2016-02-05T12:07:51.269Z,2844
2016-02-05T12:08:51.256Z,2848
2016-02-05T12:09:51.262Z,2780
2016-02-05T12:10:51.265Z,2716
2016-02-05T12:11:51.314Z,2808
2016-02-05T12:12:51.254Z,2912
2016-02-05T12:13:51.257Z,3016
2016-02-05T12:14:51.244Z,3060
2016-02-05T12:15:51.247Z,3120
2016-02-05T12:16:51.249Z,3176
2016-02-05T12:17:51.238Z,3232
2016-02-05T12:18:51.241Z,3280
2016-02-05T12:19:51.244Z,3256
2016-02-05T12:20:51.230Z,3264
2016-02-05T12:21:51.218Z,3352
2016-02-05T12:22:51.223Z,3532
2016-02-05T12:23:51.240Z,3756
2016-02-05T12:24:51.229Z,3976
2016-02-05T12:25:51.246Z,4196
2016-02-05T12:26:51.235Z,4240
2016-02-05T12:27:51.237Z,4136
2016-02-05T12:28:51.224Z,4140
2016-02-05T12:29:51.228Z,4356
2016-02-05T12:30:51.232Z,4548
2016-02-05T12:31:51.093Z,4560
2016-02-05T12:32:51.221Z,4456
2016-02-05T12:33:51.227Z,4408
2016-02-05T12:34:51.091Z,4376
2016-02-05T12:35:51.202Z,4388
2016-02-05T12:36:51.221Z,4516
2016-02-05T12:37:51.211Z,4656
2016-02-05T12:38:51.214Z,4700
2016-02-05T12:39:51.263Z,4684
2016-02-05T12:40:51.219Z,4576
2016-02-05T12:41:51.222Z,4588
2016-02-05T12:42:51.226Z,4672
2016-02-05T12:43:51.243Z,4576
2016-02-05T12:44:51.200Z,4660
2016-02-05T12:45:51.217Z,4924
2016-02-05T12:46:51.221Z,4464
2016-02-05T12:47:51.208Z,3976
2016-02-05T12:48:51.211Z,3728
2016-02-05T12:49:51.228Z,3504
2016-02-05T12:50:51.205Z,3480
2016-02-05T12:51:51.207Z,3468
2016-02-05T12:52:51.225Z,3428
2016-02-05T12:53:51.212Z,3224
2016-02-05T12:54:51.230Z,3088
2016-02-05T12:55:51.190Z,3056
2016-02-05T12:56:51.208Z,3176
2016-02-05T12:57:51.211Z,3480
2016-02-05T12:58:51.199Z,3740
2016-02-05T12:59:51.201Z,3844
2016-02-05T13:00:51.220Z,3948
2016-02-05T13:01:51.191Z,3904
2016-02-05T13:02:51.210Z,3548
2016-02-05T13:03:51.213Z,3624
2016-02-05T13:04:51.191Z,3588
2016-02-05T13:05:51.198Z,3404
2016-02-05T13:06:51.216Z,2896
2016-02-05T13:07:51.187Z,2460
2016-02-05T13:08:51.190Z,2328
2016-02-05T13:09:51.192Z,2332
2016-02-05T13:10:51.199Z,2436
2016-02-05T13:11:51.218Z,2528
2016-02-05T13:12:51.189Z,2656
2016-02-05T13:13:51.192Z,2848
2016-02-05T13:14:51.210Z,3048
2016-02-05T13:15:51.183Z,3252
2016-02-05T13:16:51.185Z,3392
2016-02-05T13:17:51.188Z,3376
2016-02-05T13:18:51.191Z,3292
2016-02-05T13:19:51.194Z,3252
2016-02-05T13:20:51.212Z,3356
2016-02-05T13:21:51.168Z,3416
2016-02-05T13:22:51.202Z,3440
2016-02-05T13:23:51.190Z,3524
2016-02-05T13:24:51.178Z,3564
2016-02-05T13:25:51.180Z,3500
2016-02-05T13:26:51.198Z,3456
2016-02-05T13:27:51.186Z,3396
2016-02-05T13:28:51.174Z,3360
2016-02-05T13:29:51.177Z,3356
2016-02-05T13:30:51.182Z,3344
2016-02-05T13:31:51.177Z,3356
2016-02-05T13:32:51.528Z,3356
2016-02-05T13:34:02.371Z,3332
2016-02-05T13:34:51.109Z,3348
2016-02-05T13:36:02.975Z,3324
2016-02-05T13:36:51.586Z,3256
2016-02-05T13:37:51.167Z,3188
2016-02-05T13:38:51.167Z,3152
2016-02-05T13:39:51.210Z,3096
2016-02-05T13:40:51.127Z,3100
2016-02-05T13:41:51.138Z,3108
2016-02-05T13:42:51.118Z,3088
2016-02-05T13:43:51.114Z,3060
2016-02-05T13:44:51.146Z,3004
2016-02-05T13:45:51.084Z,2968
2016-02-05T13:46:51.117Z,2976
2016-02-05T13:47:51.085Z,2984
2016-02-05T13:48:51.103Z,2992
2016-02-05T13:49:51.089Z,2960
2016-02-05T13:50:51.090Z,2932
2016-02-05T13:51:51.065Z,2908
2016-02-05T13:52:51.083Z,2920
2016-02-05T13:53:51.101Z,2908
2016-02-05T13:54:51.087Z,2884
2016-02-05T13:55:50.918Z,2844
2016-02-05T13:56:51.082Z,2840
2016-02-05T13:57:51.084Z,2860
2016-02-05T13:58:51.071Z,2868
2016-02-05T13:59:51.104Z,2832
2016-02-05T14:00:51.076Z,2844
2016-02-05T14:01:51.079Z,2852
2016-02-05T14:02:51.082Z,2864